Time;durP1;ratioP1;P1;durP2;ratioP2;P2;SDS_P1;SDS_P2;PMS_P1;PMS_P2;Temp;Humidity;BMP_temperature;BMP_pressure;BME280_temperature;BME280_humidity;BME280_pressure;Samples;Min_cycle;Max_cycle;Signal;HPM_P1;HPM_P2
2020/12/07 00:00:32;;;;;;;9.77;7.05;;;7.30;79.20;;;;;;4994863;28;20386;-76
2020/12/07 00:03:00;;;;;;;10.05;6.57;;;7.30;79.30;;;;;;4980158;28;20051;-77
2020/12/07 00:05:27;;;;;;;10.15;7.32;;;7.30;79.20;;;;;;4989531;28;20057;-79
2020/12/07 00:07:56;;;;;;;9.80;6.85;;;7.30;79.30;;;;;;4992884;28;20812;-77
2020/12/07 00:10:24;;;;;;;9.98;7.03;;;7.30;79.30;;;;;;5000203;28;20108;-77
2020/12/07 00:12:50;;;;;;;10.02;6.60;;;7.30;79.30;;;;;;4969216;28;20046;-77
2020/12/07 00:15:20;;;;;;;9.32;6.75;;;7.30;79.30;;;;;;4987271;28;20140;-77
2020/12/07 00:17:46;;;;;;;10.57;7.10;;;7.30;79.20;;;;;;4994400;28;20041;-76
2020/12/07 00:20:14;;;;;;;10.15;6.95;;;7.30;79.20;;;;;;5004430;28;20081;-76
2020/12/07 00:22:40;;;;;;;9.48;6.70;;;7.30;79.30;;;;;;4986893;28;20126;-76
2020/12/07 00:25:06;;;;;;;9.48;6.88;;;7.30;79.20;;;;;;4992698;28;20038;-76
2020/12/07 00:27:34;;;;;;;9.80;6.97;;;7.30;79.20;;;;;;4980622;28;20041;-76
2020/12/07 00:30:02;;;;;;;10.00;6.90;;;7.30;79.30;;;;;;4976301;28;20034;-76
2020/12/07 00:32:28;;;;;;;12.07;7.07;;;7.40;79.30;;;;;;4969757;28;20042;-76
2020/12/07 00:34:56;;;;;;;9.73;6.40;;;7.40;79.30;;;;;;4992751;28;20493;-76
2020/12/07 00:37:23;;;;;;;11.25;7.22;;;7.40;79.30;;;;;;4976818;28;20113;-76
2020/12/07 00:39:51;;;;;;;10.32;7.50;;;7.30;79.20;;;;;;5003511;28;20505;-76
2020/12/07 00:42:17;;;;;;;9.23;6.63;;;7.30;79.20;;;;;;4991846;28;20026;-76
2020/12/07 00:44:44;;;;;;;10.65;6.63;;;7.30;79.30;;;;;;4968589;28;20130;-76
2020/12/07 00:47:12;;;;;;;9.48;6.65;;;7.30;79.30;;;;;;4989139;28;20074;-76
2020/12/07 00:49:39;;;;;;;11.50;7.18;;;7.30;79.20;;;;;;4975498;28;20039;-78
2020/12/07 00:52:07;;;;;;;10.38;6.40;;;7.30;79.20;;;;;;4996779;28;20035;-76
2020/12/07 00:54:36;;;;;;;9.32;6.65;;;7.40;79.30;;;;;;4976018;28;20027;-76
2020/12/07 00:57:03;;;;;;;9.98;6.78;;;7.30;79.20;;;;;;4977857;28;20133;-76
2020/12/07 00:59:33;;;;;;;9.55;6.43;;;7.40;79.30;;;;;;4965422;28;20087;-76
2020/12/07 01:02:06;;;;;;;11.02;6.53;;;7.40;79.20;;;;;;4988661;28;20039;-76
2020/12/07 01:04:36;;;;;;;9.57;6.70;;;7.40;79.30;;;;;;4991907;28;20433;-76
2020/12/07 01:07:05;;;;;;;9.95;7.03;;;7.30;79.20;;;;;;4960960;28;20064;-77
2020/12/07 01:09:33;;;;;;;9.07;6.28;;;7.40;79.30;;;;;;4984944;28;20427;-76
2020/12/07 01:12:01;;;;;;;9.30;6.47;;;7.40;79.30;;;;;;4955850;28;20035;-76
2020/12/07 01:14:54;;;;;;;9.02;6.03;;;7.40;79.30;;;;;;4985368;28;20042;-77
2020/12/07 01:17:23;;;;;;;8.60;6.07;;;7.40;79.30;;;;;;4988844;28;20041;-77
2020/12/07 01:19:59;;;;;;;9.82;6.82;;;7.40;79.30;;;;;;4993316;28;20058;-76
2020/12/07 01:22:30;;;;;;;9.93;6.65;;;7.40;79.20;;;;;;4996554;28;20537;-76
2020/12/07 01:24:58;;;;;;;9.13;6.43;;;7.40;79.30;;;;;;4966327;28;20042;-77
2020/12/07 01:27:31;;;;;;;10.50;6.72;;;7.40;79.20;;;;;;4987574;28;20081;-77
2020/12/07 01:29:57;;;;;;;9.60;6.57;;;7.40;79.20;;;;;;4973399;28;20158;-76
2020/12/07 01:32:23;;;;;;;9.75;6.60;;;7.40;79.20;;;;;;4961164;28;20019;-76
2020/12/07 01:34:51;;;;;;;9.80;6.88;;;7.40;79.30;;;;;;4988276;28;20034;-76
2020/12/07 01:37:17;;;;;;;9.68;6.57;;;7.40;79.30;;;;;;4962419;28;20049;-75
2020/12/07 01:39:44;;;;;;;9.55;6.80;;;7.40;79.30;;;;;;4959018;28;20511;-76
2020/12/07 01:42:11;;;;;;;9.98;6.68;;;7.40;79.30;;;;;;4972991;28;20038;-76
2020/12/07 01:44:38;;;;;;;9.60;6.30;;;7.40;79.30;;;;;;4974429;28;20390;-76
2020/12/07 01:47:27;;;;;;;10.30;6.72;;;7.40;79.20;;;;;;4988340;28;20034;-77
2020/12/07 01:50:02;;;;;;;9.52;7.07;;;7.40;79.30;;;;;;4987820;28;20089;-76
2020/12/07 01:52:34;;;;;;;9.52;6.75;;;7.40;79.20;;;;;;4967076;28;20080;-76
2020/12/07 01:55:03;;;;;;;10.98;7.30;;;7.40;79.20;;;;;;4960509;28;20031;-76
2020/12/07 01:57:40;;;;;;;10.20;7.05;;;7.40;79.20;;;;;;4972072;28;20437;-76
2020/12/07 02:00:07;;;;;;;10.68;6.88;;;7.40;79.30;;;;;;4986209;28;20472;-76
2020/12/07 02:02:45;;;;;;;10.60;7.15;;;7.40;79.20;;;;;;4984912;28;20054;-76
2020/12/07 02:05:16;;;;;;;11.55;7.35;;;7.40;79.30;;;;;;4992446;28;20042;-76
2020/12/07 02:07:44;;;;;;;11.48;7.25;;;7.40;79.30;;;;;;4991198;28;20034;-76
2020/12/07 02:10:10;;;;;;;10.23;6.65;;;7.40;79.20;;;;;;4988556;28;20031;-76
2020/12/07 02:12:38;;;;;;;10.18;7.35;;;7.40;79.30;;;;;;4980154;28;20034;-76
2020/12/07 02:15:04;;;;;;;10.15;6.80;;;7.40;79.20;;;;;;4971025;28;20034;-77
2020/12/07 02:17:31;;;;;;;10.15;6.97;;;7.40;79.30;;;;;;4992539;28;20496;-76
2020/12/07 02:19:57;;;;;;;9.02;6.90;;;7.40;79.30;;;;;;4987629;28;20109;-76
2020/12/07 02:22:24;;;;;;;10.52;7.03;;;7.40;79.30;;;;;;4969856;28;20034;-76
2020/12/07 02:25:13;;;;;;;9.50;7.15;;;7.40;79.30;;;;;;4994221;28;20035;-76
2020/12/07 02:27:40;;;;;;;9.63;6.80;;;7.40;79.20;;;;;;4946324;28;20034;-76
2020/12/07 02:30:06;;;;;;;9.55;7.32;;;7.40;79.20;;;;;;4986856;28;20037;-76
2020/12/07 02:32:34;;;;;;;10.18;7.32;;;7.40;79.30;;;;;;4972345;28;20097;-76
2020/12/07 02:35:11;;;;;;;10.82;7.53;;;7.40;79.30;;;;;;4983090;28;20134;-76
2020/12/07 02:37:45;;;;;;;10.85;7.32;;;7.40;79.30;;;;;;4998074;28;20038;-76
2020/12/07 02:40:12;;;;;;;11.13;7.85;;;7.40;79.30;;;;;;4982270;28;20116;-75
2020/12/07 02:42:40;;;;;;;10.15;7.38;;;7.40;79.30;;;;;;4973970;28;20038;-76
2020/12/07 02:45:13;;;;;;;10.93;7.15;;;7.40;79.30;;;;;;4960779;28;20477;-77
2020/12/07 02:47:42;;;;;;;11.18;7.75;;;7.40;79.30;;;;;;4981049;28;20371;-76
2020/12/07 02:50:10;;;;;;;10.75;7.28;;;7.40;79.30;;;;;;4989771;28;20486;-76
2020/12/07 02:52:37;;;;;;;10.10;7.00;;;7.40;79.30;;;;;;4961759;28;20090;-76
2020/12/07 02:55:09;;;;;;;10.15;6.95;;;7.40;79.30;;;;;;4958599;28;20045;-74
2020/12/07 02:57:35;;;;;;;10.77;7.38;;;7.40;79.30;;;;;;4990604;28;20061;-77
2020/12/07 03:00:06;;;;;;;10.32;7.25;;;7.40;79.30;;;;;;4978564;28;20073;-76
2020/12/07 03:02:35;;;;;;;10.00;6.75;;;7.40;79.30;;;;;;4992597;28;20502;-77
2020/12/07 03:05:05;;;;;;;12.38;8.10;;;7.40;79.30;;;;;;4996369;28;20037;-76
2020/12/07 03:07:32;;;;;;;10.52;7.38;;;7.40;79.30;;;;;;4993610;28;20030;-77
2020/12/07 03:10:00;;;;;;;9.20;6.68;;;7.40;79.30;;;;;;4991613;28;20421;-76
2020/12/07 03:12:30;;;;;;;12.00;7.57;;;7.40;79.30;;;;;;4977416;28;20038;-75
2020/12/07 03:14:58;;;;;;;10.40;7.65;;;7.40;79.40;;;;;;4975200;28;20027;-76
2020/12/07 03:17:27;;;;;;;10.68;7.53;;;7.40;79.40;;;;;;4983745;28;20058;-76
2020/12/07 03:19:53;;;;;;;9.75;6.97;;;7.40;79.40;;;;;;4993144;28;20057;-76
2020/12/07 03:22:20;;;;;;;10.48;7.22;;;7.40;79.40;;;;;;4948835;28;20122;-76
2020/12/07 03:24:46;;;;;;;11.85;7.80;;;7.40;79.40;;;;;;4994013;28;20097;-78
2020/12/07 03:27:14;;;;;;;11.13;7.85;;;7.40;79.40;;;;;;4993830;28;20026;-76
2020/12/07 03:29:40;;;;;;;9.98;7.28;;;7.40;79.40;;;;;;4978219;28;20058;-77
2020/12/07 03:32:06;;;;;;;10.98;7.43;;;7.40;79.40;;;;;;4993277;28;20034;-76
2020/12/07 03:34:34;;;;;;;10.38;7.38;;;7.40;79.30;;;;;;4999939;28;20485;-75
2020/12/07 03:37:06;;;;;;;10.30;7.40;;;7.40;79.30;;;;;;4971593;28;20037;-76
2020/12/07 03:39:47;;;;;;;10.68;6.82;;;7.40;79.40;;;;;;4975619;28;20062;-76
2020/12/07 03:42:16;;;;;;;10.13;6.68;;;7.40;79.40;;;;;;4993459;28;20083;-76
2020/12/07 03:44:43;;;;;;;10.27;6.85;;;7.40;79.40;;;;;;4977802;28;20088;-75
2020/12/07 03:47:11;;;;;;;11.38;7.53;;;7.40;79.50;;;;;;4986865;28;20039;-77
2020/12/07 03:49:37;;;;;;;10.25;6.93;;;7.40;79.40;;;;;;4974314;28;20058;-76
2020/12/07 03:52:08;;;;;;;9.90;7.25;;;7.40;79.50;;;;;;4977853;28;20117;-75
2020/12/07 03:54:34;;;;;;;10.27;7.43;;;7.40;79.50;;;;;;4991854;28;20570;-76
2020/12/07 03:57:01;;;;;;;9.98;7.22;;;7.40;79.40;;;;;;4970967;28;20035;-77
2020/12/07 03:59:27;;;;;;;9.35;7.03;;;7.40;79.40;;;;;;4960456;28;20443;-76
2020/12/07 04:01:56;;;;;;;9.50;6.82;;;7.40;79.40;;;;;;4958614;28;20467;-76
2020/12/07 04:04:30;;;;;;;10.02;7.15;;;7.40;79.50;;;;;;4989443;28;20061;-76
2020/12/07 04:06:56;;;;;;;9.25;6.75;;;7.40;79.50;;;;;;4991778;28;20133;-76
2020/12/07 04:09:23;;;;;;;10.52;7.00;;;7.40;79.40;;;;;;4954217;28;20493;-76
2020/12/07 04:11:51;;;;;;;11.02;7.57;;;7.40;79.50;;;;;;4986883;28;20058;-76
2020/12/07 04:14:17;;;;;;;9.65;7.05;;;7.40;79.50;;;;;;4971233;28;20113;-76
2020/12/07 04:16:43;;;;;;;10.50;7.55;;;7.40;79.50;;;;;;4960931;28;20040;-76
2020/12/07 04:19:09;;;;;;;10.23;7.15;;;7.40;79.50;;;;;;4958775;28;20027;-76
2020/12/07 04:21:35;;;;;;;9.70;7.28;;;7.40;79.50;;;;;;4975692;28;20099;-76
2020/12/07 04:24:01;;;;;;;9.60;6.65;;;7.40;79.50;;;;;;4978654;28;20035;-76
2020/12/07 04:26:27;;;;;;;9.60;7.15;;;7.40;79.50;;;;;;4985160;28;20039;-77
2020/12/07 04:28:53;;;;;;;9.65;6.97;;;7.40;79.50;;;;;;4975341;28;20031;-77
2020/12/07 04:31:18;;;;;;;9.40;6.30;;;7.40;79.50;;;;;;4987635;28;20054;-76
2020/12/07 04:33:44;;;;;;;8.82;6.43;;;7.40;79.50;;;;;;4997731;28;20048;-79
2020/12/07 04:36:13;;;;;;;9.05;6.45;;;7.40;79.50;;;;;;4983176;28;20110;-77
2020/12/07 04:38:39;;;;;;;9.05;6.18;;;7.40;79.50;;;;;;4989810;28;20121;-76
2020/12/07 04:41:05;;;;;;;9.18;6.70;;;7.40;79.50;;;;;;4986892;28;20094;-76
2020/12/07 04:43:32;;;;;;;9.80;6.90;;;7.40;79.40;;;;;;4983860;28;20031;-74
2020/12/07 04:46:00;;;;;;;8.75;6.20;;;7.40;79.50;;;;;;4991455;28;20096;-76
2020/12/07 04:48:28;;;;;;;8.70;6.25;;;7.40;79.40;;;;;;4968626;28;20045;-76
2020/12/07 04:50:55;;;;;;;8.85;6.45;;;7.40;79.50;;;;;;4965959;28;20118;-78
2020/12/07 04:53:21;;;;;;;8.73;6.30;;;7.40;79.50;;;;;;4979793;28;20054;-76
2020/12/07 04:55:50;;;;;;;8.52;5.95;;;7.40;79.50;;;;;;4971076;28;20035;-76
2020/12/07 04:58:18;;;;;;;10.27;6.45;;;7.40;79.50;;;;;;4986656;28;20062;-76
2020/12/07 05:00:44;;;;;;;9.00;6.53;;;7.40;79.50;;;;;;4982432;28;20022;-76
2020/12/07 05:03:17;;;;;;;9.05;6.70;;;7.40;79.50;;;;;;4987080;28;20105;-76
2020/12/07 05:05:49;;;;;;;7.65;5.43;;;7.40;79.50;;;;;;4986600;28;20038;-76
2020/12/07 05:08:15;;;;;;;7.57;5.68;;;7.50;79.50;;;;;;4986354;28;20545;-77
2020/12/07 05:10:43;;;;;;;8.95;6.07;;;7.50;79.60;;;;;;4976122;28;20046;-75
2020/12/07 05:15:42;;;;;;;8.55;5.90;;;7.40;79.50;;;;;;4986524;28;20046;-76
2020/12/07 05:18:08;;;;;;;8.10;6.28;;;7.50;79.50;;;;;;4963321;28;20089;-77
2020/12/07 05:20:37;;;;;;;8.38;6.03;;;7.40;79.50;;;;;;4980863;28;20030;-76
2020/12/07 05:23:03;;;;;;;8.98;5.60;;;7.50;79.60;;;;;;4982771;28;20501;-77
2020/12/07 05:25:29;;;;;;;8.20;5.90;;;7.40;79.50;;;;;;5004003;28;20128;-76
2020/12/07 05:28:01;;;;;;;8.32;6.18;;;7.50;79.60;;;;;;4979906;28;20125;-79
2020/12/07 05:30:36;;;;;;;7.40;5.63;;;7.40;79.50;;;;;;4962890;28;20027;-76
2020/12/07 05:33:02;;;;;;;8.25;6.15;;;7.40;79.60;;;;;;4993575;28;20030;-76
2020/12/07 05:35:28;;;;;;;9.27;6.72;;;7.50;79.60;;;;;;4985567;28;20027;-76
2020/12/07 05:37:54;;;;;;;8.27;6.20;;;7.40;79.50;;;;;;4987493;28;20040;-76
2020/12/07 05:40:19;;;;;;;8.52;6.15;;;7.50;79.60;;;;;;4987056;28;20034;-76
2020/12/07 05:42:45;;;;;;;8.68;5.72;;;7.50;79.60;;;;;;4990351;28;20397;-75
2020/12/07 05:45:11;;;;;;;7.97;5.85;;;7.50;79.60;;;;;;4985733;28;20031;-76
2020/12/07 05:47:39;;;;;;;9.07;6.68;;;7.50;79.60;;;;;;4988460;28;20493;-74
2020/12/07 05:50:09;;;;;;;8.35;6.30;;;7.50;79.60;;;;;;4957309;28;20034;-76
2020/12/07 05:52:38;;;;;;;8.80;6.03;;;7.50;79.60;;;;;;4992002;28;20026;-76
2020/12/07 05:55:04;;;;;;;8.48;5.82;;;7.50;79.60;;;;;;4987124;28;20042;-76
2020/12/07 05:57:31;;;;;;;7.95;6.07;;;7.50;79.50;;;;;;4966234;28;20035;-77
2020/12/07 06:00:05;;;;;;;10.25;6.25;;;7.50;79.60;;;;;;4981238;28;20029;-77
2020/12/07 06:02:42;;;;;;;7.78;5.93;;;7.50;79.60;;;;;;4995048;28;20082;-76
2020/12/07 06:05:14;;;;;;;8.82;6.22;;;7.50;79.50;;;;;;4985021;28;20047;-77
2020/12/07 06:07:51;;;;;;;9.18;6.57;;;7.50;79.60;;;;;;4968020;28;20069;-77
2020/12/07 06:10:19;;;;;;;8.15;5.97;;;7.50;79.60;;;;;;4980354;28;20031;-77
2020/12/07 06:12:52;;;;;;;8.90;6.55;;;7.50;79.50;;;;;;4977608;28;20027;-76
2020/12/07 06:15:19;;;;;;;9.50;6.45;;;7.50;79.60;;;;;;4987672;28;20077;-74
2020/12/07 06:17:49;;;;;;;8.35;6.18;;;7.50;79.60;;;;;;4982525;28;20038;-74
2020/12/07 06:20:37;;;;;;;8.40;5.88;;;7.50;79.60;;;;;;4980251;28;20031;-76
2020/12/07 06:23:03;;;;;;;8.35;6.07;;;7.50;79.60;;;;;;4996851;28;20078;-76
2020/12/07 06:25:31;;;;;;;8.95;6.45;;;7.50;79.60;;;;;;4970484;28;20027;-76
2020/12/07 06:27:59;;;;;;;8.18;6.00;;;7.50;79.60;;;;;;4988688;28;20027;-77
2020/12/07 06:30:31;;;;;;;8.20;5.90;;;7.50;79.60;;;;;;4989715;28;20038;-76
2020/12/07 06:33:03;;;;;;;8.27;6.07;;;7.50;79.60;;;;;;4992160;28;20031;-77
2020/12/07 06:35:29;;;;;;;8.73;5.78;;;7.50;79.50;;;;;;4984612;28;20034;-76
2020/12/07 06:37:55;;;;;;;7.68;6.00;;;7.50;79.60;;;;;;4987802;28;20121;-77
2020/12/07 06:40:25;;;;;;;8.00;6.28;;;7.50;79.50;;;;;;4979822;28;20031;-79
2020/12/07 06:42:51;;;;;;;8.05;5.80;;;7.60;79.60;;;;;;4992242;28;20026;-79
2020/12/07 06:45:23;;;;;;;8.35;6.15;;;7.50;79.50;;;;;;4990036;28;20027;-77
2020/12/07 06:47:50;;;;;;;8.25;5.97;;;7.50;79.60;;;;;;4974522;28;20027;-78
2020/12/07 06:50:18;;;;;;;8.13;5.97;;;7.50;79.50;;;;;;5001653;28;20034;-80
2020/12/07 06:52:46;;;;;;;7.95;5.97;;;7.50;79.50;;;;;;4992431;28;20030;-77
2020/12/07 06:55:15;;;;;;;8.88;6.43;;;7.50;79.50;;;;;;4994075;28;20085;-77
2020/12/07 06:57:48;;;;;;;8.15;6.03;;;7.60;79.60;;;;;;4990071;28;20109;-77
2020/12/07 07:00:16;;;;;;;8.68;6.15;;;7.50;79.60;;;;;;4984075;28;20038;-77
2020/12/07 07:02:44;;;;;;;8.60;5.93;;;7.60;79.60;;;;;;4974878;28;20489;-76
2020/12/07 07:05:12;;;;;;;9.07;6.35;;;7.50;79.50;;;;;;4984544;28;20029;-77
2020/12/07 07:07:38;;;;;;;8.23;5.85;;;7.60;79.60;;;;;;4981182;28;20058;-77
2020/12/07 07:10:06;;;;;;;8.95;5.72;;;7.50;79.60;;;;;;4984483;28;20030;-78
2020/12/07 07:12:32;;;;;;;7.75;5.93;;;7.60;79.60;;;;;;4961610;28;20533;-77
2020/12/07 07:14:58;;;;;;;9.02;6.25;;;7.60;79.60;;;;;;4981046;28;20047;-78
2020/12/07 07:17:26;;;;;;;9.18;6.45;;;7.60;79.60;;;;;;4999713;28;20034;-77
2020/12/07 07:19:52;;;;;;;8.82;6.03;;;7.60;79.60;;;;;;4970295;28;20030;-78
2020/12/07 07:22:18;;;;;;;8.60;6.38;;;7.60;79.60;;;;;;4954702;28;20034;-77
2020/12/07 07:29:59;;;;;;;7.28;5.70;;;7.60;79.60;;;;;;4976242;28;20042;-76
2020/12/07 07:32:25;;;;;;;8.52;6.25;;;7.60;79.60;;;;;;5008082;28;20121;-77
2020/12/07 07:34:51;;;;;;;8.15;5.90;;;7.60;79.60;;;;;;4985924;28;20039;-77
2020/12/07 07:37:17;;;;;;;8.18;6.47;;;7.60;79.60;;;;;;4993813;28;20424;-78
2020/12/07 07:39:47;;;;;;;8.13;5.95;;;7.60;79.60;;;;;;4995899;28;20474;-77
2020/12/07 07:42:17;;;;;;;7.55;5.80;;;7.60;79.60;;;;;;4987225;28;20187;-78
2020/12/07 07:44:46;;;;;;;8.50;6.25;;;7.60;79.60;;;;;;4980856;28;20026;-77
2020/12/07 07:47:23;;;;;;;9.05;6.68;;;7.60;79.60;;;;;;4978035;28;20061;-77
2020/12/07 08:05:54;;;;;;;8.02;5.90;;;7.60;79.60;;;;;;4972968;28;20038;-79
2020/12/07 08:15:27;;;;;;;7.43;5.70;;;7.60;79.60;;;;;;4985360;28;20035;-78
2020/12/07 08:18:01;;;;;;;7.05;5.15;;;7.60;79.60;;;;;;4986513;28;20120;-77
2020/12/07 08:20:36;;;;;;;6.87;5.37;;;7.60;79.60;;;;;;4998244;28;20030;-77
2020/12/07 08:23:07;;;;;;;8.07;5.70;;;7.60;79.60;;;;;;4974128;28;20114;-78
2020/12/07 08:25:50;;;;;;;7.85;5.63;;;7.60;79.60;;;;;;4973240;28;20078;-78
2020/12/07 08:28:22;;;;;;;6.78;5.43;;;7.60;79.70;;;;;;4996258;28;20377;-78
2020/12/07 08:31:10;;;;;;;7.97;5.80;;;7.60;79.60;;;;;;4994613;28;20027;-76
2020/12/07 08:33:53;;;;;;;8.48;5.72;;;7.60;79.70;;;;;;4986919;28;20050;-77
2020/12/07 08:36:19;;;;;;;8.25;5.82;;;7.60;79.70;;;;;;4988682;28;20034;-79
2020/12/07 08:38:45;;;;;;;7.13;5.22;;;7.70;79.70;;;;;;4979062;28;20038;-77
2020/12/07 08:41:20;;;;;;;7.43;5.45;;;7.60;79.70;;;;;;4966500;28;20404;-74
2020/12/07 08:43:57;;;;;;;8.30;5.80;;;7.60;79.70;;;;;;4990787;28;20069;-74
2020/12/07 08:46:25;;;;;;;7.85;5.57;;;7.60;79.70;;;;;;4991953;28;20039;-74
2020/12/07 08:48:52;;;;;;;6.38;4.90;;;7.60;79.70;;;;;;4992763;28;20030;-74
2020/12/07 08:51:22;;;;;;;7.05;4.97;;;7.60;79.70;;;;;;4977209;28;20386;-78
2020/12/07 08:53:49;;;;;;;7.07;5.18;;;7.60;79.70;;;;;;4996802;28;20037;-78
2020/12/07 08:56:15;;;;;;;6.43;5.00;;;7.70;79.70;;;;;;4962769;28;20117;-78
2020/12/07 08:58:41;;;;;;;7.45;5.60;;;7.70;79.70;;;;;;4984411;28;20046;-77
2020/12/07 09:01:09;;;;;;;7.57;5.43;;;7.70;79.70;;;;;;4990531;28;20080;-78
2020/12/07 09:03:36;;;;;;;6.78;5.22;;;7.70;79.70;;;;;;4989857;28;20054;-79
2020/12/07 09:06:06;;;;;;;6.95;5.00;;;7.70;79.70;;;;;;4971024;28;20475;-79
2020/12/07 09:08:34;;;;;;;8.20;5.90;;;7.70;79.70;;;;;;4977973;28;20035;-78
2020/12/07 09:11:03;;;;;;;6.88;5.28;;;7.70;79.70;;;;;;4984558;28;20023;-81
2020/12/07 09:13:29;;;;;;;8.40;5.70;;;7.70;79.70;;;;;;4992063;28;20113;-79
2020/12/07 09:15:55;;;;;;;7.00;5.40;;;7.70;79.70;;;;;;4966320;28;20035;-78
2020/12/07 09:18:21;;;;;;;6.95;5.25;;;7.70;79.70;;;;;;4977289;28;20027;-79
2020/12/07 09:20:47;;;;;;;7.40;5.25;;;7.70;79.70;;;;;;4987598;28;20130;-79
2020/12/07 09:23:13;;;;;;;7.35;5.30;;;7.70;79.70;;;;;;4973794;28;20494;-78
2020/12/07 09:25:39;;;;;;;8.45;6.32;;;7.70;79.70;;;;;;4962539;28;20038;-78
2020/12/07 09:28:05;;;;;;;7.38;5.47;;;7.70;79.70;;;;;;4991296;28;20352;-79
2020/12/07 09:30:31;;;;;;;7.43;5.32;;;7.70;79.70;;;;;;4972432;28;20111;-78
2020/12/07 09:32:57;;;;;;;6.90;5.22;;;7.70;79.60;;;;;;4977776;28;20483;-78
2020/12/07 09:35:23;;;;;;;7.95;5.93;;;7.70;79.60;;;;;;4967215;28;20045;-78
2020/12/07 09:37:49;;;;;;;8.18;5.57;;;7.70;79.60;;;;;;4982210;28;20125;-78
2020/12/07 09:40:14;;;;;;;7.38;5.38;;;7.70;79.60;;;;;;4983340;28;20022;-78
2020/12/07 09:42:41;;;;;;;7.72;5.65;;;7.70;79.70;;;;;;4991165;28;20426;-78
2020/12/07 09:45:08;;;;;;;7.95;5.50;;;7.70;79.60;;;;;;4973984;28;20057;-79
2020/12/07 09:47:34;;;;;;;6.93;5.68;;;7.80;79.70;;;;;;4976715;28;20035;-79
2020/12/07 09:50:03;;;;;;;7.70;5.97;;;7.70;79.70;;;;;;4974338;28;20449;-79
2020/12/07 09:52:28;;;;;;;7.45;5.40;;;7.70;79.70;;;;;;4989709;28;20036;-78
2020/12/07 09:54:54;;;;;;;8.48;6.18;;;7.80;79.70;;;;;;4975560;28;20034;-79
2020/12/07 09:57:20;;;;;;;8.43;6.15;;;7.80;79.70;;;;;;4984596;28;20120;-77
2020/12/07 09:59:48;;;;;;;8.00;6.22;;;7.80;79.70;;;;;;4978146;28;20043;-78
2020/12/07 10:02:14;;;;;;;7.68;5.78;;;7.80;79.70;;;;;;4979834;28;20038;-78
2020/12/07 10:04:40;;;;;;;8.95;6.68;;;7.80;79.70;;;;;;4971164;28;20133;-78
2020/12/07 10:07:06;;;;;;;9.75;6.30;;;7.80;79.80;;;;;;4970267;28;20148;-77
2020/12/07 10:09:32;;;;;;;8.13;6.30;;;7.80;79.70;;;;;;4988650;28;20427;-77
2020/12/07 10:11:58;;;;;;;8.48;6.40;;;7.80;79.70;;;;;;4988501;28;20034;-77
2020/12/07 10:14:23;;;;;;;8.38;6.22;;;7.80;79.70;;;;;;4988509;28;20041;-78
2020/12/07 10:16:49;;;;;;;8.02;6.05;;;7.80;79.80;;;;;;4990554;28;20113;-78
2020/12/07 10:19:15;;;;;;;8.13;6.05;;;7.80;79.70;;;;;;5005609;28;20030;-74
2020/12/07 10:21:41;;;;;;;7.32;5.53;;;7.80;79.80;;;;;;4975108;28;20066;-76
2020/12/07 10:24:07;;;;;;;8.57;6.25;;;7.80;79.70;;;;;;4980612;28;20035;-80
2020/12/07 10:26:34;;;;;;;8.60;6.10;;;7.80;79.70;;;;;;4960156;28;20485;-77
2020/12/07 10:29:00;;;;;;;7.40;5.65;;;7.80;79.70;;;;;;4967752;28;20034;-76
2020/12/07 10:31:26;;;;;;;8.60;6.25;;;7.80;79.70;;;;;;4990623;28;20057;-75
2020/12/07 10:33:53;;;;;;;9.50;7.10;;;7.80;79.70;;;;;;4992149;28;20026;-76
2020/12/07 10:36:20;;;;;;;8.27;6.10;;;7.80;79.70;;;;;;4988831;28;20394;-77
2020/12/07 10:38:49;;;;;;;9.10;6.82;;;7.80;79.70;;;;;;4971720;28;20045;-75
2020/12/07 10:41:15;;;;;;;7.93;6.20;;;7.90;79.80;;;;;;4972996;28;20527;-79
2020/12/07 10:43:41;;;;;;;8.35;6.32;;;7.80;79.60;;;;;;4991537;28;20113;-78
2020/12/07 10:46:08;;;;;;;7.68;6.05;;;7.90;79.70;;;;;;4990578;28;20080;-78
2020/12/07 10:48:34;;;;;;;9.05;6.57;;;7.90;79.70;;;;;;4981608;28;20022;-78
2020/12/07 10:51:00;;;;;;;8.50;6.20;;;7.90;79.70;;;;;;4990282;28;20398;-77
2020/12/07 10:53:26;;;;;;;9.25;6.82;;;7.90;79.70;;;;;;4973959;28;20042;-77
2020/12/07 10:55:52;;;;;;;9.30;6.90;;;7.90;79.70;;;;;;4981268;28;20071;-79
2020/12/07 10:58:22;;;;;;;9.50;7.05;;;7.90;79.70;;;;;;4977237;28;20031;-79
2020/12/07 11:00:50;;;;;;;10.38;7.72;;;7.90;79.70;;;;;;4982577;28;20031;-78
2020/12/07 11:03:16;;;;;;;10.50;7.22;;;7.90;79.70;;;;;;4964234;28;20047;-78
2020/12/07 11:05:42;;;;;;;9.27;6.72;;;7.90;79.70;;;;;;4986401;28;20084;-78
2020/12/07 11:11:09;;;;;;;10.35;7.55;;;7.90;79.70;;;;;;4995788;28;20092;-80
2020/12/07 11:13:36;;;;;;;12.23;8.25;;;8.00;79.70;;;;;;4987787;28;20034;-77
2020/12/07 11:16:04;;;;;;;11.07;8.43;;;8.00;79.70;;;;;;4973604;28;20045;-78
2020/12/07 11:18:30;;;;;;;11.18;7.93;;;7.90;79.70;;;;;;4974151;28;20459;-78
2020/12/07 11:20:56;;;;;;;12.15;8.35;;;7.90;79.70;;;;;;4977738;28;20106;-78
2020/12/07 11:23:23;;;;;;;11.57;8.07;;;7.90;79.70;;;;;;4998496;28;20034;-78
2020/12/07 11:25:49;;;;;;;10.88;8.50;;;7.90;79.70;;;;;;4977661;28;20474;-78
2020/12/07 11:28:15;;;;;;;11.38;8.48;;;8.00;79.70;;;;;;4987390;28;20041;-77
2020/12/07 11:30:41;;;;;;;11.20;8.30;;;7.90;79.60;;;;;;4988526;28;20022;-78
2020/12/07 11:33:06;;;;;;;12.27;8.25;;;8.00;79.70;;;;;;4955610;28;20031;-80
2020/12/07 11:35:32;;;;;;;11.88;8.77;;;8.00;80.30;;;;;;4983532;28;20154;-78
2020/12/07 11:38:08;;;;;;;11.60;8.05;;;8.00;80.30;;;;;;4963323;28;20031;-76
2020/12/07 11:45:51;;;;;;;13.02;8.52;;;8.00;79.70;;;;;;4964429;28;20062;-78
2020/12/07 11:48:16;;;;;;;11.75;8.93;;;8.00;79.70;;;;;;4985843;28;20470;-78
2020/12/07 11:50:42;;;;;;;12.50;9.02;;;8.00;79.70;;;;;;4977459;28;20053;-77
2020/12/07 11:53:08;;;;;;;11.73;8.20;;;8.00;79.70;;;;;;4976812;28;20038;-77
2020/12/07 11:55:33;;;;;;;12.63;8.90;;;8.00;79.70;;;;;;4993546;28;20031;-78
2020/12/07 11:57:59;;;;;;;12.65;8.73;;;8.00;79.70;;;;;;4979508;28;20057;-77
2020/12/07 12:00:25;;;;;;;13.65;9.30;;;8.00;79.70;;;;;;4982229;28;20089;-79
2020/12/07 12:02:50;;;;;;;12.45;8.85;;;8.00;79.80;;;;;;4998332;28;20471;-78
2020/12/07 12:05:17;;;;;;;12.80;8.70;;;8.00;79.80;;;;;;4984161;28;20046;-78
2020/12/07 12:07:43;;;;;;;12.55;9.10;;;8.00;79.80;;;;;;4992127;28;20470;-77
2020/12/07 12:10:09;;;;;;;13.48;9.00;;;7.90;79.80;;;;;;4959888;28;20089;-77
2020/12/07 12:12:35;;;;;;;12.75;9.23;;;8.00;79.80;;;;;;4984976;28;20487;-79
2020/12/07 12:15:02;;;;;;;14.02;9.30;;;8.00;79.80;;;;;;4986876;28;20097;-77
2020/12/07 12:17:27;;;;;;;12.40;8.85;;;8.00;79.80;;;;;;4983929;28;20855;-77
2020/12/07 12:19:53;;;;;;;12.68;9.27;;;8.00;79.80;;;;;;4994127;28;20062;-78
2020/12/07 12:22:19;;;;;;;12.13;8.93;;;8.00;79.80;;;;;;4995136;28;20034;-79
2020/12/07 12:24:45;;;;;;;13.18;8.63;;;8.00;79.70;;;;;;4970557;28;20091;-78
2020/12/07 12:27:10;;;;;;;13.02;8.88;;;8.00;79.70;;;;;;4991425;28;20035;-78
2020/12/07 12:29:36;;;;;;;13.10;8.32;;;8.00;79.70;;;;;;4982492;28;20394;-79
2020/12/07 12:32:02;;;;;;;12.82;8.55;;;8.00;79.70;;;;;;4988962;28;20459;-79
2020/12/07 12:34:28;;;;;;;11.98;7.93;;;8.00;79.70;;;;;;4973059;28;20034;-79
2020/12/07 12:36:54;;;;;;;11.27;8.63;;;8.00;79.70;;;;;;4978181;28;20045;-78
2020/12/07 12:39:21;;;;;;;13.23;8.90;;;8.00;79.70;;;;;;4987491;28;20057;-79
2020/12/07 12:41:47;;;;;;;12.63;8.68;;;8.00;79.70;;;;;;4990892;28;20066;-78
2020/12/07 12:44:12;;;;;;;13.70;8.85;;;8.00;79.70;;;;;;4980212;28;20113;-78
2020/12/07 12:46:38;;;;;;;11.82;8.25;;;8.00;79.70;;;;;;4976297;28;20034;-78
2020/12/07 12:49:05;;;;;;;11.27;7.82;;;8.00;79.60;;;;;;4991421;28;20036;-80
2020/12/07 12:51:32;;;;;;;11.50;8.07;;;8.00;79.60;;;;;;4989289;28;20061;-78
2020/12/07 12:53:59;;;;;;;10.70;7.88;;;8.00;79.70;;;;;;4974102;28;20031;-78
2020/12/07 12:56:25;;;;;;;12.93;8.85;;;8.00;79.70;;;;;;4972872;28;20038;-77
2020/12/07 12:58:51;;;;;;;12.82;8.30;;;8.00;79.60;;;;;;4990813;28;20038;-77
2020/12/07 13:01:16;;;;;;;12.57;8.52;;;8.00;79.60;;;;;;4979644;28;20033;-78
2020/12/07 13:03:42;;;;;;;12.35;8.23;;;8.10;79.70;;;;;;4971336;28;20392;-80
2020/12/07 13:06:08;;;;;;;11.68;7.95;;;8.10;79.70;;;;;;4971312;28;20124;-78
2020/12/07 13:08:34;;;;;;;11.02;7.68;;;8.00;79.60;;;;;;4982988;28;20491;-77
2020/12/07 13:11:00;;;;;;;12.13;8.48;;;8.00;79.60;;;;;;4992248;28;20033;-79
2020/12/07 13:13:26;;;;;;;10.70;7.88;;;8.10;79.70;;;;;;4990212;28;20041;-77
2020/12/07 13:18:29;;;;;;;11.35;7.93;;;8.00;79.60;;;;;;4977038;28;20085;-78
2020/12/07 13:21:07;;;;;;;11.45;7.72;;;8.00;79.60;;;;;;4980449;28;20121;-77
2020/12/07 13:23:58;;;;;;;11.18;7.43;;;8.10;79.70;;;;;;4975446;28;20474;-79
2020/12/07 13:28:49;;;;;;;12.05;7.75;;;8.00;79.60;;;;;;4982238;28;20038;-77
2020/12/07 13:31:22;;;;;;;11.52;7.55;;;8.00;79.60;;;;;;4982699;28;20521;-76
2020/12/07 13:33:49;;;;;;;10.95;7.50;;;8.00;79.60;;;;;;4990643;28;20038;-77
2020/12/07 13:36:37;;;;;;;10.25;7.18;;;8.00;79.60;;;;;;4996898;28;20078;-77
2020/12/07 13:39:10;;;;;;;12.73;7.97;;;8.00;79.60;;;;;;4967281;28;20042;-76
2020/12/07 13:41:45;;;;;;;9.55;6.43;;;8.00;79.70;;;;;;4961008;28;20492;-77